createdAt,value
2024-02-27T00:01:42.022Z,8.10
2024-02-27T00:07:04.938Z,7.10
2024-02-27T00:12:27.170Z,7.33
2024-02-27T00:17:49.501Z,7.93
2024-02-27T00:23:13.037Z,7.47
2024-02-27T00:28:34.844Z,7.50
2024-02-27T00:33:57.269Z,8.10
2024-02-27T00:39:19.597Z,8.07
2024-02-27T00:44:45.728Z,7.77
2024-02-27T00:50:09.275Z,8.03
2024-02-27T00:55:31.387Z,7.87
2024-02-27T01:00:53.707Z,7.60
2024-02-27T01:06:16.041Z,7.80
2024-02-27T01:11:38.229Z,7.03
2024-02-27T01:17:01.059Z,7.87
2024-02-27T01:22:34.114Z,7.67
2024-02-27T01:27:56.088Z,7.23
2024-02-27T01:33:18.836Z,7.73
2024-02-27T01:38:40.898Z,7.40
2024-02-27T01:44:03.055Z,7.47
2024-02-27T01:49:27.984Z,8.07
2024-02-27T01:54:52.739Z,7.40
2024-02-27T02:00:15.501Z,8.00
2024-02-27T02:05:37.935Z,7.73
2024-02-27T02:11:02.457Z,8.70
2024-02-27T02:16:25.008Z,7.67
2024-02-27T02:21:51.650Z,8.67
2024-02-27T02:27:17.987Z,8.33
2024-02-27T02:32:49.703Z,8.47
2024-02-27T02:38:12.284Z,8.50
2024-02-27T02:43:34.532Z,7.37
2024-02-27T02:49:02.503Z,7.87
2024-02-27T02:54:24.718Z,8.20
2024-02-27T02:59:47.068Z,8.13
2024-02-27T03:05:13.238Z,9.23
2024-02-27T03:10:35.225Z,7.20
2024-02-27T03:15:57.902Z,8.43
2024-02-27T03:21:20.008Z,7.90
2024-02-27T03:26:43.759Z,7.63
2024-02-27T03:32:06.425Z,9.00
2024-02-27T03:37:28.438Z,8.07
2024-02-27T03:42:50.772Z,8.73
2024-02-27T03:48:13.150Z,8.03
2024-02-27T03:53:35.239Z,7.30
2024-02-27T03:58:57.178Z,7.93
2024-02-27T04:04:19.519Z,8.00
2024-02-27T04:09:42.080Z,7.50
2024-02-27T04:15:04.631Z,7.73
2024-02-27T04:20:26.653Z,7.53
2024-02-27T04:25:48.765Z,8.10
2024-02-27T04:31:11.264Z,8.33
2024-02-27T04:36:33.438Z,8.70
2024-02-27T04:41:55.774Z,8.27
2024-02-27T04:47:18.119Z,8.57
2024-02-27T04:52:40.174Z,8.53
2024-02-27T04:58:02.519Z,8.47
2024-02-27T05:03:25.026Z,9.17
2024-02-27T05:08:49.921Z,9.00
2024-02-27T05:14:11.954Z,8.70
2024-02-27T05:19:34.076Z,9.83
2024-02-27T05:24:56.071Z,10.03
2024-02-27T05:30:18.460Z,10.07
2024-02-27T05:35:40.792Z,9.33
2024-02-27T05:41:02.708Z,9.63
2024-02-27T05:46:25.174Z,9.73
2024-02-27T05:51:48.696Z,9.90
2024-02-27T05:57:12.407Z,10.80
2024-02-27T06:02:34.874Z,10.23
2024-02-27T06:07:57.227Z,10.10
2024-02-27T06:13:19.220Z,10.53
2024-02-27T06:18:43.733Z,10.20
2024-02-27T06:24:06.614Z,11.00
2024-02-27T06:29:28.591Z,9.33
2024-02-27T06:34:50.786Z,11.30
2024-02-27T06:40:13.248Z,12.20
2024-02-27T06:45:36.513Z,12.13
2024-02-27T06:51:07.120Z,11.53
2024-02-27T06:56:29.998Z,11.50
2024-02-27T07:01:51.938Z,12.17
2024-02-27T07:07:14.259Z,12.97
2024-02-27T07:12:36.858Z,13.43
2024-02-27T07:17:59.209Z,14.77
2024-02-27T07:23:21.404Z,13.07
2024-02-27T07:28:45.274Z,14.23
2024-02-27T07:34:07.722Z,15.67
2024-02-27T07:39:30.302Z,16.27
2024-02-27T07:44:52.678Z,16.67
2024-02-27T07:50:17.761Z,15.80
2024-02-27T07:55:42.267Z,16.43
2024-02-27T08:01:04.842Z,15.00
2024-02-27T08:06:28.855Z,15.63
2024-02-27T08:11:51.616Z,16.30
2024-02-27T08:17:13.720Z,17.47
2024-02-27T08:22:36.096Z,17.47
2024-02-27T08:27:58.258Z,16.00
2024-02-27T08:33:20.536Z,17.53
2024-02-27T08:38:46.044Z,17.27
2024-02-27T08:44:08.069Z,16.77
2024-02-27T08:49:30.348Z,18.53
2024-02-27T08:54:52.714Z,17.10
2024-02-27T09:00:17.412Z,16.60
2024-02-27T09:05:39.508Z,17.00
2024-02-27T09:11:02.542Z,15.90
2024-02-27T09:16:24.503Z,17.50
2024-02-27T09:21:46.959Z,16.87
2024-02-27T09:27:09.044Z,17.53
2024-02-27T09:32:31.132Z,16.27
2024-02-27T09:37:56.191Z,16.70
2024-02-27T09:43:23.129Z,15.40
2024-02-27T09:48:47.110Z,15.27
2024-02-27T09:54:12.051Z,16.83
2024-02-27T09:59:34.983Z,14.90
2024-02-27T10:04:57.903Z,14.43
2024-02-27T10:10:20.318Z,14.53
2024-02-27T10:15:42.781Z,14.30
2024-02-27T10:21:05.576Z,13.90
2024-02-27T10:26:27.715Z,13.47
2024-02-27T10:31:52.974Z,13.50
2024-02-27T10:37:22.055Z,14.13
2024-02-27T10:42:44.592Z,14.23
2024-02-27T10:48:06.789Z,13.73
2024-02-27T10:53:30.553Z,14.00
2024-02-27T10:58:54.161Z,13.13
2024-02-27T11:04:22.763Z,13.67
2024-02-27T11:09:47.082Z,12.73
2024-02-27T11:15:11.281Z,12.33
2024-02-27T11:20:33.801Z,12.33
2024-02-27T11:25:57.763Z,11.83
2024-02-27T11:31:22.089Z,10.60
2024-02-27T11:37:07.060Z,11.67
2024-02-27T11:42:42.556Z,12.57
2024-02-27T11:48:05.084Z,12.80
2024-02-27T11:53:32.930Z,11.07
2024-02-27T11:58:55.193Z,11.20
2024-02-27T12:04:17.999Z,10.97
2024-02-27T12:09:41.055Z,11.27
2024-02-27T12:15:03.956Z,11.97
2024-02-27T12:20:26.470Z,10.27
2024-02-27T12:25:48.740Z,11.07
2024-02-27T12:31:10.825Z,10.20
2024-02-27T12:36:32.846Z,10.57
2024-02-27T12:41:55.213Z,9.97
2024-02-27T12:47:17.643Z,10.53
2024-02-27T12:52:41.181Z,10.17
2024-02-27T12:58:04.096Z,10.27
2024-02-27T13:03:27.230Z,10.20
2024-02-27T13:08:49.813Z,10.43
2024-02-27T13:14:12.057Z,10.83
2024-02-27T13:20:00.181Z,10.60
2024-02-27T13:25:23.111Z,10.10
2024-02-27T13:30:45.273Z,9.60
2024-02-27T13:36:08.218Z,11.10
2024-02-27T13:41:30.304Z,10.87
2024-02-27T13:46:52.219Z,10.77
2024-02-27T13:52:14.429Z,11.47
2024-02-27T13:57:36.667Z,11.90
2024-02-27T14:02:59.846Z,11.60
2024-02-27T14:08:23.362Z,11.70
2024-02-27T14:13:45.996Z,11.73
2024-02-27T14:19:09.266Z,11.70
2024-02-27T14:24:31.422Z,11.53
2024-02-27T14:29:53.560Z,12.20
2024-02-27T14:35:15.888Z,12.27
2024-02-27T14:40:38.017Z,13.03
2024-02-27T14:46:00.315Z,13.07
2024-02-27T14:51:29.466Z,11.93
2024-02-27T14:56:52.187Z,12.03
2024-02-27T15:02:14.209Z,11.77
2024-02-27T15:07:37.047Z,12.60
2024-02-27T15:13:00.310Z,11.13
2024-02-27T15:18:23.142Z,12.63
2024-02-27T15:23:45.167Z,13.13
2024-02-27T15:29:07.421Z,13.03
2024-02-27T15:34:29.768Z,12.77
2024-02-27T15:39:52.029Z,11.90
2024-02-27T15:45:14.464Z,11.57
2024-02-27T15:50:36.991Z,12.37
2024-02-27T15:55:59.230Z,12.47
2024-02-27T16:01:21.248Z,11.50
2024-02-27T16:06:55.642Z,12.70
2024-02-27T16:12:22.005Z,12.07
2024-02-27T16:17:47.214Z,13.33
2024-02-27T16:23:09.306Z,13.27
2024-02-27T16:28:31.563Z,13.33
2024-02-27T16:33:54.954Z,13.07
2024-02-27T16:39:17.486Z,14.17
2024-02-27T16:44:39.618Z,13.50
2024-02-27T16:50:02.536Z,12.10
2024-02-27T16:55:24.505Z,12.27
2024-02-27T17:00:46.872Z,11.17
2024-02-27T17:06:09.407Z,10.43
2024-02-27T17:11:31.868Z,10.43
2024-02-27T17:16:54.660Z,10.03
2024-02-27T17:22:16.702Z,10.47
2024-02-27T17:27:39.206Z,10.83
2024-02-27T17:33:02.545Z,10.40
2024-02-27T17:38:24.781Z,10.00
2024-02-27T17:43:46.748Z,9.47
2024-02-27T17:49:10.614Z,9.63
2024-02-27T17:54:33.702Z,9.10
2024-02-27T17:59:55.962Z,9.60
2024-02-27T18:05:19.843Z,10.57
2024-02-27T18:10:43.497Z,9.33
2024-02-27T18:16:57.276Z,8.40
2024-02-27T18:22:20.059Z,9.80
2024-02-27T18:27:42.340Z,9.73
2024-02-27T18:33:08.108Z,9.87
2024-02-27T18:38:30.696Z,9.30
2024-02-27T18:43:52.681Z,10.10
2024-02-27T18:49:15.118Z,9.93
2024-02-27T18:54:37.577Z,9.60
2024-02-27T18:59:59.936Z,10.77
2024-02-27T19:05:28.460Z,9.37
2024-02-27T19:10:50.831Z,10.40
2024-02-27T19:16:14.309Z,10.83
2024-02-27T19:21:36.288Z,10.10
2024-02-27T19:26:58.473Z,11.33
2024-02-27T19:32:20.678Z,10.63
2024-02-27T19:37:43.485Z,11.80
2024-02-27T19:43:05.965Z,10.53
2024-02-27T19:48:27.957Z,10.40
2024-02-27T19:53:51.392Z,12.33
2024-02-27T19:59:13.714Z,11.53
2024-02-27T20:04:36.073Z,11.57
2024-02-27T20:09:58.534Z,11.63
2024-02-27T20:15:21.050Z,11.70
2024-02-27T20:20:43.948Z,9.80
2024-02-27T20:26:06.194Z,11.37
2024-02-27T20:31:28.304Z,11.43
2024-02-27T20:36:50.761Z,11.87
2024-02-27T20:42:14.983Z,12.30
2024-02-27T20:47:37.175Z,11.60
2024-02-27T20:52:59.500Z,11.33
2024-02-27T20:58:22.827Z,11.53
2024-02-27T21:03:44.984Z,11.67
2024-02-27T21:09:08.000Z,11.67
2024-02-27T21:14:32.343Z,10.97
2024-02-27T21:19:54.403Z,10.83
2024-02-27T21:25:16.912Z,11.07
2024-02-27T21:30:39.391Z,10.93
2024-02-27T21:36:02.669Z,10.97
2024-02-27T21:41:24.694Z,9.87
2024-02-27T21:46:46.867Z,10.93
2024-02-27T21:52:08.853Z,9.70
2024-02-27T21:57:30.912Z,9.83
2024-02-27T22:02:53.287Z,9.13
2024-02-27T22:08:15.422Z,9.63
2024-02-27T22:13:38.813Z,9.60
2024-02-27T22:19:01.027Z,9.27
2024-02-27T22:24:23.845Z,9.33
2024-02-27T22:29:46.139Z,10.57
2024-02-27T22:35:08.785Z,9.10
2024-02-27T22:40:30.876Z,8.47
2024-02-27T22:45:53.253Z,8.80
2024-02-27T22:51:15.766Z,9.07
2024-02-27T22:56:38.178Z,9.43
2024-02-27T23:02:00.467Z,8.80
2024-02-27T23:07:26.873Z,8.90
2024-02-27T23:12:50.286Z,9.37
2024-02-27T23:18:12.393Z,8.70
2024-02-27T23:23:34.310Z,9.07
2024-02-27T23:28:56.370Z,9.03
2024-02-27T23:34:18.639Z,9.37
2024-02-27T23:39:40.698Z,8.10
2024-02-27T23:45:03.194Z,7.87
2024-02-27T23:50:25.160Z,8.73
2024-02-27T23:55:48.286Z,8.60
